sensor_id;sensor_type;location;lat;lon;timestamp;P1;durP1;ratioP1;P2;durP2;ratioP2
69912;SDS011;57198;52.082;5.108;2022-08-11T00:02:11;3.70;;;2.13;;
69912;SDS011;57198;52.082;5.108;2022-08-11T00:04:40;3.85;;;2.38;;
69912;SDS011;57198;52.082;5.108;2022-08-11T00:07:08;3.47;;;1.77;;
69912;SDS011;57198;52.082;5.108;2022-08-11T00:09:36;2.97;;;1.92;;
69912;SDS011;57198;52.082;5.108;2022-08-11T00:12:11;2.13;;;1.70;;
69912;SDS011;57198;52.082;5.108;2022-08-11T00:14:39;3.85;;;1.80;;
69912;SDS011;57198;52.082;5.108;2022-08-11T00:17:07;6.30;;;2.28;;
69912;SDS011;57198;52.082;5.108;2022-08-11T00:19:41;3.00;;;1.60;;
69912;SDS011;57198;52.082;5.108;2022-08-11T00:22:29;3.08;;;1.77;;
69912;SDS011;57198;52.082;5.108;2022-08-11T00:24:58;2.83;;;1.60;;
69912;SDS011;57198;52.082;5.108;2022-08-11T00:27:31;5.88;;;1.85;;
69912;SDS011;57198;52.082;5.108;2022-08-11T00:29:59;3.17;;;2.20;;
69912;SDS011;57198;52.082;5.108;2022-08-11T00:32:26;5.78;;;1.85;;
69912;SDS011;57198;52.082;5.108;2022-08-11T00:34:54;3.78;;;1.75;;
69912;SDS011;57198;52.082;5.108;2022-08-11T00:37:49;2.80;;;1.40;;
69912;SDS011;57198;52.082;5.108;2022-08-11T00:40:28;3.85;;;1.50;;
69912;SDS011;57198;52.082;5.108;2022-08-11T00:48:44;4.57;;;1.90;;
69912;SDS011;57198;52.082;5.108;2022-08-11T01:02:38;3.63;;;1.90;;
69912;SDS011;57198;52.082;5.108;2022-08-11T01:05:13;3.07;;;1.83;;
69912;SDS011;57198;52.082;5.108;2022-08-11T01:13:27;5.15;;;2.00;;
69912;SDS011;57198;52.082;5.108;2022-08-11T01:42:16;2.58;;;2.10;;
69912;SDS011;57198;52.082;5.108;2022-08-11T01:48:01;4.75;;;2.20;;
69912;SDS011;57198;52.082;5.108;2022-08-11T01:53:03;3.88;;;2.33;;
69912;SDS011;57198;52.082;5.108;2022-08-11T01:55:37;2.85;;;2.20;;
69912;SDS011;57198;52.082;5.108;2022-08-11T02:01:15;7.50;;;2.42;;
69912;SDS011;57198;52.082;5.108;2022-08-11T02:03:35;1.85;;;1.73;;
69912;SDS011;57198;52.082;5.108;2022-08-11T02:06:21;2.95;;;1.70;;
69912;SDS011;57198;52.082;5.108;2022-08-11T02:11:42;3.30;;;1.77;;
69912;SDS011;57198;52.082;5.108;2022-08-11T02:14:14;7.20;;;1.77;;
69912;SDS011;57198;52.082;5.108;2022-08-11T02:22:24;4.30;;;2.25;;
69912;SDS011;57198;52.082;5.108;2022-08-11T02:27:53;5.55;;;2.00;;
69912;SDS011;57198;52.082;5.108;2022-08-11T02:30:23;4.80;;;2.50;;
69912;SDS011;57198;52.082;5.108;2022-08-11T02:41:15;6.50;;;2.33;;
69912;SDS011;57198;52.082;5.108;2022-08-11T02:44:20;2.55;;;2.15;;
69912;SDS011;57198;52.082;5.108;2022-08-11T02:47:08;2.58;;;2.03;;
69912;SDS011;57198;52.082;5.108;2022-08-11T02:58:16;5.65;;;2.58;;
69912;SDS011;57198;52.082;5.108;2022-08-11T03:01:00;4.90;;;2.60;;
69912;SDS011;57198;52.082;5.108;2022-08-11T03:03:29;3.70;;;2.55;;
69912;SDS011;57198;52.082;5.108;2022-08-11T03:06:08;3.30;;;2.30;;
69912;SDS011;57198;52.082;5.108;2022-08-11T03:14:50;2.55;;;2.10;;
69912;SDS011;57198;52.082;5.108;2022-08-11T03:20:18;7.13;;;2.77;;
69912;SDS011;57198;52.082;5.108;2022-08-11T03:25:29;3.63;;;2.50;;
69912;SDS011;57198;52.082;5.108;2022-08-11T03:28:20;2.50;;;2.20;;
69912;SDS011;57198;52.082;5.108;2022-08-11T03:30:52;6.28;;;2.85;;
69912;SDS011;57198;52.082;5.108;2022-08-11T03:36:09;3.17;;;2.25;;
69912;SDS011;57198;52.082;5.108;2022-08-11T03:38:45;3.58;;;2.60;;
69912;SDS011;57198;52.082;5.108;2022-08-11T03:47:07;3.20;;;2.43;;
69912;SDS011;57198;52.082;5.108;2022-08-11T03:55:18;5.90;;;2.78;;
69912;SDS011;57198;52.082;5.108;2022-08-11T04:03:18;2.92;;;2.67;;
69912;SDS011;57198;52.082;5.108;2022-08-11T04:06:16;3.65;;;2.90;;
69912;SDS011;57198;52.082;5.108;2022-08-11T04:09:12;3.72;;;2.63;;
69912;SDS011;57198;52.082;5.108;2022-08-11T04:12:01;4.57;;;3.17;;
69912;SDS011;57198;52.082;5.108;2022-08-11T04:23:24;2.78;;;2.58;;
69912;SDS011;57198;52.082;5.108;2022-08-11T04:28:56;4.53;;;2.70;;
69912;SDS011;57198;52.082;5.108;2022-08-11T04:31:42;7.63;;;3.20;;
69912;SDS011;57198;52.082;5.108;2022-08-11T04:45:30;6.82;;;2.70;;
69912;SDS011;57198;52.082;5.108;2022-08-11T04:48:18;5.20;;;2.95;;
69912;SDS011;57198;52.082;5.108;2022-08-11T04:57:03;3.30;;;3.00;;
69912;SDS011;57198;52.082;5.108;2022-08-11T05:05:15;2.92;;;2.20;;
69912;SDS011;57198;52.082;5.108;2022-08-11T05:08:07;2.90;;;2.70;;
69912;SDS011;57198;52.082;5.108;2022-08-11T05:10:46;5.57;;;2.23;;
69912;SDS011;57198;52.082;5.108;2022-08-11T05:13:21;5.18;;;2.88;;
69912;SDS011;57198;52.082;5.108;2022-08-11T05:16:09;5.30;;;2.92;;
69912;SDS011;57198;52.082;5.108;2022-08-11T05:18:57;4.68;;;2.85;;
69912;SDS011;57198;52.082;5.108;2022-08-11T05:21:45;5.57;;;3.03;;
69912;SDS011;57198;52.082;5.108;2022-08-11T05:24:35;4.57;;;3.10;;
69912;SDS011;57198;52.082;5.108;2022-08-11T05:27:22;3.47;;;2.72;;
69912;SDS011;57198;52.082;5.108;2022-08-11T05:30:12;3.65;;;2.83;;
69912;SDS011;57198;52.082;5.108;2022-08-11T05:33:18;4.68;;;3.17;;
69912;SDS011;57198;52.082;5.108;2022-08-11T05:36:09;7.18;;;2.70;;
69912;SDS011;57198;52.082;5.108;2022-08-11T05:38:38;4.87;;;2.50;;
69912;SDS011;57198;52.082;5.108;2022-08-11T05:41:25;7.20;;;2.65;;
69912;SDS011;57198;52.082;5.108;2022-08-11T05:44:17;2.97;;;2.50;;
69912;SDS011;57198;52.082;5.108;2022-08-11T05:47:03;3.33;;;2.60;;
69912;SDS011;57198;52.082;5.108;2022-08-11T05:49:49;6.13;;;3.10;;
69912;SDS011;57198;52.082;5.108;2022-08-11T05:52:43;4.77;;;3.13;;
69912;SDS011;57198;52.082;5.108;2022-08-11T05:55:30;4.18;;;2.92;;
69912;SDS011;57198;52.082;5.108;2022-08-11T05:58:35;3.80;;;2.95;;
69912;SDS011;57198;52.082;5.108;2022-08-11T06:01:08;6.47;;;3.10;;
69912;SDS011;57198;52.082;5.108;2022-08-11T06:03:36;3.88;;;2.90;;
69912;SDS011;57198;52.082;5.108;2022-08-11T06:06:24;2.53;;;2.13;;
69912;SDS011;57198;52.082;5.108;2022-08-11T06:08:55;6.00;;;2.95;;
69912;SDS011;57198;52.082;5.108;2022-08-11T06:11:23;6.30;;;3.15;;
69912;SDS011;57198;52.082;5.108;2022-08-11T06:14:09;4.40;;;3.00;;
69912;SDS011;57198;52.082;5.108;2022-08-11T06:16:37;2.78;;;2.45;;
69912;SDS011;57198;52.082;5.108;2022-08-11T06:19:07;5.40;;;2.87;;
69912;SDS011;57198;52.082;5.108;2022-08-11T06:21:35;4.00;;;2.80;;
69912;SDS011;57198;52.082;5.108;2022-08-11T06:24:04;4.03;;;3.08;;
69912;SDS011;57198;52.082;5.108;2022-08-11T06:26:37;4.40;;;3.00;;
69912;SDS011;57198;52.082;5.108;2022-08-11T06:29:25;4.93;;;2.88;;
69912;SDS011;57198;52.082;5.108;2022-08-11T06:32:12;6.10;;;2.60;;
69912;SDS011;57198;52.082;5.108;2022-08-11T06:45:25;3.93;;;2.87;;
69912;SDS011;57198;52.082;5.108;2022-08-11T06:47:53;5.63;;;2.67;;
69912;SDS011;57198;52.082;5.108;2022-08-11T06:50:21;5.05;;;2.20;;
69912;SDS011;57198;52.082;5.108;2022-08-11T06:53:08;2.92;;;2.63;;
69912;SDS011;57198;52.082;5.108;2022-08-11T06:55:37;6.93;;;2.50;;
69912;SDS011;57198;52.082;5.108;2022-08-11T06:58:28;5.63;;;2.70;;
69912;SDS011;57198;52.082;5.108;2022-08-11T07:01:18;7.82;;;2.58;;
69912;SDS011;57198;52.082;5.108;2022-08-11T07:03:53;3.95;;;2.50;;
69912;SDS011;57198;52.082;5.108;2022-08-11T07:08:58;8.75;;;2.20;;
69912;SDS011;57198;52.082;5.108;2022-08-11T07:11:54;3.60;;;2.30;;
69912;SDS011;57198;52.082;5.108;2022-08-11T07:14:46;2.75;;;1.88;;
69912;SDS011;57198;52.082;5.108;2022-08-11T07:17:34;5.45;;;2.25;;
69912;SDS011;57198;52.082;5.108;2022-08-11T07:20:03;2.25;;;2.05;;
69912;SDS011;57198;52.082;5.108;2022-08-11T07:22:55;11.63;;;2.55;;
69912;SDS011;57198;52.082;5.108;2022-08-11T07:25:42;3.90;;;2.10;;
69912;SDS011;57198;52.082;5.108;2022-08-11T07:28:29;7.55;;;1.98;;
69912;SDS011;57198;52.082;5.108;2022-08-11T07:31:16;7.00;;;2.15;;
69912;SDS011;57198;52.082;5.108;2022-08-11T07:33:48;3.15;;;1.65;;
69912;SDS011;57198;52.082;5.108;2022-08-11T07:36:39;5.93;;;2.40;;
69912;SDS011;57198;52.082;5.108;2022-08-11T07:39:07;4.03;;;2.10;;
69912;SDS011;57198;52.082;5.108;2022-08-11T07:41:36;2.97;;;2.20;;
69912;SDS011;57198;52.082;5.108;2022-08-11T07:44:04;4.55;;;2.80;;
69912;SDS011;57198;52.082;5.108;2022-08-11T07:46:37;2.70;;;2.30;;
69912;SDS011;57198;52.082;5.108;2022-08-11T07:49:26;4.32;;;1.77;;
69912;SDS011;57198;52.082;5.108;2022-08-11T07:52:13;3.33;;;2.03;;
69912;SDS011;57198;52.082;5.108;2022-08-11T07:55:02;3.28;;;1.73;;
69912;SDS011;57198;52.082;5.108;2022-08-11T07:57:33;3.80;;;2.10;;
69912;SDS011;57198;52.082;5.108;2022-08-11T08:00:44;2.78;;;1.80;;
69912;SDS011;57198;52.082;5.108;2022-08-11T08:03:36;5.30;;;2.08;;
69912;SDS011;57198;52.082;5.108;2022-08-11T08:06:23;5.10;;;2.00;;
69912;SDS011;57198;52.082;5.108;2022-08-11T08:09:09;7.25;;;1.90;;
69912;SDS011;57198;52.082;5.108;2022-08-11T08:11:56;5.07;;;1.55;;
69912;SDS011;57198;52.082;5.108;2022-08-11T08:14:44;8.30;;;2.03;;
69912;SDS011;57198;52.082;5.108;2022-08-11T08:17:30;4.15;;;1.80;;
69912;SDS011;57198;52.082;5.108;2022-08-11T08:23:01;2.65;;;1.83;;
69912;SDS011;57198;52.082;5.108;2022-08-11T08:25:37;6.97;;;1.92;;
69912;SDS011;57198;52.082;5.108;2022-08-11T08:28:06;2.47;;;2.10;;
69912;SDS011;57198;52.082;5.108;2022-08-11T08:30:35;4.80;;;2.22;;
69912;SDS011;57198;52.082;5.108;2022-08-11T08:33:13;2.03;;;1.80;;
69912;SDS011;57198;52.082;5.108;2022-08-11T08:35:41;2.08;;;1.77;;
69912;SDS011;57198;52.082;5.108;2022-08-11T08:38:21;3.15;;;1.90;;
69912;SDS011;57198;52.082;5.108;2022-08-11T08:40:49;6.50;;;2.22;;
69912;SDS011;57198;52.082;5.108;2022-08-11T08:43:21;3.50;;;2.33;;
69912;SDS011;57198;52.082;5.108;2022-08-11T08:45:49;5.10;;;1.77;;
69912;SDS011;57198;52.082;5.108;2022-08-11T08:48:21;6.72;;;2.10;;
69912;SDS011;57198;52.082;5.108;2022-08-11T08:50:55;3.40;;;1.77;;
69912;SDS011;57198;52.082;5.108;2022-08-11T08:53:44;4.30;;;2.25;;
69912;SDS011;57198;52.082;5.108;2022-08-11T08:56:19;5.38;;;2.03;;
69912;SDS011;57198;52.082;5.108;2022-08-11T08:58:50;2.90;;;1.63;;
69912;SDS011;57198;52.082;5.108;2022-08-11T09:01:18;5.03;;;1.83;;
69912;SDS011;57198;52.082;5.108;2022-08-11T09:03:47;4.80;;;2.00;;
69912;SDS011;57198;52.082;5.108;2022-08-11T09:06:35;2.78;;;2.00;;
69912;SDS011;57198;52.082;5.108;2022-08-11T09:09:06;5.63;;;1.88;;
69912;SDS011;57198;52.082;5.108;2022-08-11T09:11:34;2.97;;;1.80;;
69912;SDS011;57198;52.082;5.108;2022-08-11T09:17:11;3.58;;;2.25;;
69912;SDS011;57198;52.082;5.108;2022-08-11T09:19:39;5.88;;;1.98;;
69912;SDS011;57198;52.082;5.108;2022-08-11T09:22:07;4.78;;;2.60;;
69912;SDS011;57198;52.082;5.108;2022-08-11T09:24:54;6.37;;;2.37;;
69912;SDS011;57198;52.082;5.108;2022-08-11T09:27:40;5.25;;;2.30;;
69912;SDS011;57198;52.082;5.108;2022-08-11T09:30:16;6.50;;;2.25;;
69912;SDS011;57198;52.082;5.108;2022-08-11T09:32:45;2.10;;;1.75;;
69912;SDS011;57198;52.082;5.108;2022-08-11T09:35:13;3.28;;;2.00;;
69912;SDS011;57198;52.082;5.108;2022-08-11T09:37:43;5.53;;;1.87;;
69912;SDS011;57198;52.082;5.108;2022-08-11T09:40:29;4.75;;;1.88;;
69912;SDS011;57198;52.082;5.108;2022-08-11T09:42:56;9.02;;;2.10;;
69912;SDS011;57198;52.082;5.108;2022-08-11T09:45:46;6.47;;;2.10;;
69912;SDS011;57198;52.082;5.108;2022-08-11T09:48:17;5.32;;;1.98;;
69912;SDS011;57198;52.082;5.108;2022-08-11T09:50:46;3.97;;;1.80;;
69912;SDS011;57198;52.082;5.108;2022-08-11T09:53:15;5.20;;;1.65;;
69912;SDS011;57198;52.082;5.108;2022-08-11T09:56:03;5.00;;;2.00;;
69912;SDS011;57198;52.082;5.108;2022-08-11T09:58:51;1.73;;;1.48;;
69912;SDS011;57198;52.082;5.108;2022-08-11T10:01:20;3.20;;;1.40;;
69912;SDS011;57198;52.082;5.108;2022-08-11T10:03:55;4.33;;;1.40;;
69912;SDS011;57198;52.082;5.108;2022-08-11T10:06:26;4.28;;;1.40;;
69912;SDS011;57198;52.082;5.108;2022-08-11T10:09:19;6.05;;;1.60;;
69912;SDS011;57198;52.082;5.108;2022-08-11T10:11:50;4.38;;;1.95;;
69912;SDS011;57198;52.082;5.108;2022-08-11T10:14:23;6.40;;;2.00;;
69912;SDS011;57198;52.082;5.108;2022-08-11T10:17:10;5.20;;;1.83;;
69912;SDS011;57198;52.082;5.108;2022-08-11T10:19:39;5.40;;;1.60;;
69912;SDS011;57198;52.082;5.108;2022-08-11T10:22:08;2.85;;;1.77;;
69912;SDS011;57198;52.082;5.108;2022-08-11T10:24:58;2.65;;;1.42;;
69912;SDS011;57198;52.082;5.108;2022-08-11T10:27:45;1.70;;;1.48;;
69912;SDS011;57198;52.082;5.108;2022-08-11T10:30:40;3.03;;;1.30;;
69912;SDS011;57198;52.082;5.108;2022-08-11T10:33:26;4.90;;;1.45;;
69912;SDS011;57198;52.082;5.108;2022-08-11T10:36:28;6.80;;;1.40;;
69912;SDS011;57198;52.082;5.108;2022-08-11T10:38:56;2.00;;;1.20;;
69912;SDS011;57198;52.082;5.108;2022-08-11T10:41:24;2.72;;;1.10;;
69912;SDS011;57198;52.082;5.108;2022-08-11T10:44:31;6.87;;;1.40;;
69912;SDS011;57198;52.082;5.108;2022-08-11T10:47:03;1.17;;;1.08;;
69912;SDS011;57198;52.082;5.108;2022-08-11T10:49:49;1.30;;;1.20;;
69912;SDS011;57198;52.082;5.108;2022-08-11T10:52:36;2.95;;;1.40;;
69912;SDS011;57198;52.082;5.108;2022-08-11T10:55:23;4.50;;;1.38;;
69912;SDS011;57198;52.082;5.108;2022-08-11T10:58:10;1.60;;;1.50;;
69912;SDS011;57198;52.082;5.108;2022-08-11T11:00:56;5.20;;;1.20;;
69912;SDS011;57198;52.082;5.108;2022-08-11T11:03:27;2.35;;;1.40;;
69912;SDS011;57198;52.082;5.108;2022-08-11T11:05:56;2.70;;;1.40;;
69912;SDS011;57198;52.082;5.108;2022-08-11T11:08:47;5.45;;;1.42;;
69912;SDS011;57198;52.082;5.108;2022-08-11T11:11:18;5.57;;;1.87;;
69912;SDS011;57198;52.082;5.108;2022-08-11T11:13:48;4.30;;;1.52;;
69912;SDS011;57198;52.082;5.108;2022-08-11T11:16:34;5.65;;;1.90;;
69912;SDS011;57198;52.082;5.108;2022-08-11T11:19:22;3.38;;;1.40;;
69912;SDS011;57198;52.082;5.108;2022-08-11T11:21:52;4.88;;;1.60;;
69912;SDS011;57198;52.082;5.108;2022-08-11T11:24:36;6.20;;;1.70;;
69912;SDS011;57198;52.082;5.108;2022-08-11T11:27:24;3.80;;;1.50;;
69912;SDS011;57198;52.082;5.108;2022-08-11T11:30:00;3.20;;;1.38;;
69912;SDS011;57198;52.082;5.108;2022-08-11T11:35:11;6.28;;;1.60;;
69912;SDS011;57198;52.082;5.108;2022-08-11T11:37:40;3.70;;;1.60;;
69912;SDS011;57198;52.082;5.108;2022-08-11T11:40:27;2.05;;;1.60;;
69912;SDS011;57198;52.082;5.108;2022-08-11T11:42:57;6.53;;;2.38;;
69912;SDS011;57198;52.082;5.108;2022-08-11T11:45:25;7.22;;;2.00;;
69912;SDS011;57198;52.082;5.108;2022-08-11T11:47:53;3.15;;;1.80;;
69912;SDS011;57198;52.082;5.108;2022-08-11T11:50:28;7.80;;;1.70;;
69912;SDS011;57198;52.082;5.108;2022-08-11T11:52:59;2.08;;;1.48;;
69912;SDS011;57198;52.082;5.108;2022-08-11T11:55:27;3.10;;;1.63;;
69912;SDS011;57198;52.082;5.108;2022-08-11T11:57:55;3.13;;;1.58;;
69912;SDS011;57198;52.082;5.108;2022-08-11T12:00:44;4.05;;;1.65;;
69912;SDS011;57198;52.082;5.108;2022-08-11T12:03:45;3.10;;;1.47;;
69912;SDS011;57198;52.082;5.108;2022-08-11T12:06:13;3.10;;;1.33;;
69912;SDS011;57198;52.082;5.108;2022-08-11T12:08:41;5.45;;;1.40;;
69912;SDS011;57198;52.082;5.108;2022-08-11T12:11:10;1.42;;;1.33;;
69912;SDS011;57198;52.082;5.108;2022-08-11T12:13:57;4.22;;;1.52;;
69912;SDS011;57198;52.082;5.108;2022-08-11T12:16:26;6.13;;;1.47;;
69912;SDS011;57198;52.082;5.108;2022-08-11T12:19:03;5.75;;;1.40;;
69912;SDS011;57198;52.082;5.108;2022-08-11T12:21:31;1.52;;;1.42;;
69912;SDS011;57198;52.082;5.108;2022-08-11T12:24:00;7.80;;;1.40;;
69912;SDS011;57198;52.082;5.108;2022-08-11T12:26:46;3.03;;;1.73;;
69912;SDS011;57198;52.082;5.108;2022-08-11T12:29:34;3.40;;;1.30;;
69912;SDS011;57198;52.082;5.108;2022-08-11T12:32:09;3.28;;;1.50;;
69912;SDS011;57198;52.082;5.108;2022-08-11T12:34:36;3.28;;;1.30;;
69912;SDS011;57198;52.082;5.108;2022-08-11T12:37:04;4.55;;;1.17;;
69912;SDS011;57198;52.082;5.108;2022-08-11T12:39:48;3.78;;;1.30;;
69912;SDS011;57198;52.082;5.108;2022-08-11T12:42:55;3.03;;;1.40;;
69912;SDS011;57198;52.082;5.108;2022-08-11T12:45:50;4.03;;;1.48;;
69912;SDS011;57198;52.082;5.108;2022-08-11T12:48:19;3.40;;;1.40;;
69912;SDS011;57198;52.082;5.108;2022-08-11T12:51:25;1.95;;;1.50;;
69912;SDS011;57198;52.082;5.108;2022-08-11T12:54:35;4.95;;;1.40;;
69912;SDS011;57198;52.082;5.108;2022-08-11T12:57:13;3.27;;;1.50;;
69912;SDS011;57198;52.082;5.108;2022-08-11T13:00:06;2.67;;;1.48;;
69912;SDS011;57198;52.082;5.108;2022-08-11T13:02:52;2.53;;;1.52;;
69912;SDS011;57198;52.082;5.108;2022-08-11T13:05:40;4.22;;;1.38;;
69912;SDS011;57198;52.082;5.108;2022-08-11T13:08:11;7.68;;;1.58;;
69912;SDS011;57198;52.082;5.108;2022-08-11T13:10:41;3.87;;;1.13;;
69912;SDS011;57198;52.082;5.108;2022-08-11T13:13:27;5.90;;;1.02;;
69912;SDS011;57198;52.082;5.108;2022-08-11T13:16:15;1.30;;;1.15;;
69912;SDS011;57198;52.082;5.108;2022-08-11T13:18:43;2.35;;;1.27;;
69912;SDS011;57198;52.082;5.108;2022-08-11T13:21:11;5.85;;;1.58;;
69912;SDS011;57198;52.082;5.108;2022-08-11T13:23:47;4.83;;;1.20;;
69912;SDS011;57198;52.082;5.108;2022-08-11T13:26:27;3.90;;;1.23;;
69912;SDS011;57198;52.082;5.108;2022-08-11T13:29:16;2.30;;;1.30;;
69912;SDS011;57198;52.082;5.108;2022-08-11T13:31:43;4.10;;;1.10;;
69912;SDS011;57198;52.082;5.108;2022-08-11T13:34:11;2.67;;;1.20;;
69912;SDS011;57198;52.082;5.108;2022-08-11T13:36:39;7.30;;;1.00;;
69912;SDS011;57198;52.082;5.108;2022-08-11T13:39:07;2.10;;;1.25;;
69912;SDS011;57198;52.082;5.108;2022-08-11T13:41:34;3.78;;;1.65;;
69912;SDS011;57198;52.082;5.108;2022-08-11T13:44:09;4.93;;;2.58;;
69912;SDS011;57198;52.082;5.108;2022-08-11T13:46:43;4.95;;;1.63;;
69912;SDS011;57198;52.082;5.108;2022-08-11T13:49:14;5.13;;;1.50;;
69912;SDS011;57198;52.082;5.108;2022-08-11T13:51:42;4.13;;;1.48;;
69912;SDS011;57198;52.082;5.108;2022-08-11T13:54:11;2.85;;;1.40;;
69912;SDS011;57198;52.082;5.108;2022-08-11T13:56:44;4.30;;;1.40;;
69912;SDS011;57198;52.082;5.108;2022-08-11T13:59:13;6.43;;;1.30;;
69912;SDS011;57198;52.082;5.108;2022-08-11T14:01:43;2.77;;;1.40;;
69912;SDS011;57198;52.082;5.108;2022-08-11T14:04:39;4.40;;;1.30;;
69912;SDS011;57198;52.082;5.108;2022-08-11T14:07:08;4.05;;;1.42;;
69912;SDS011;57198;52.082;5.108;2022-08-11T14:09:36;5.65;;;1.20;;
69912;SDS011;57198;52.082;5.108;2022-08-11T14:12:16;2.40;;;1.50;;
69912;SDS011;57198;52.082;5.108;2022-08-11T14:15:07;3.63;;;1.17;;
69912;SDS011;57198;52.082;5.108;2022-08-11T14:17:37;5.20;;;1.17;;
69912;SDS011;57198;52.082;5.108;2022-08-11T14:20:15;4.63;;;1.30;;
69912;SDS011;57198;52.082;5.108;2022-08-11T14:23:03;2.88;;;1.00;;
69912;SDS011;57198;52.082;5.108;2022-08-11T14:25:31;2.30;;;1.25;;
69912;SDS011;57198;52.082;5.108;2022-08-11T14:28:19;5.50;;;1.03;;
69912;SDS011;57198;52.082;5.108;2022-08-11T14:31:03;9.52;;;1.40;;
69912;SDS011;57198;52.082;5.108;2022-08-11T14:33:31;1.08;;;0.98;;
69912;SDS011;57198;52.082;5.108;2022-08-11T14:36:21;3.08;;;1.20;;
69912;SDS011;57198;52.082;5.108;2022-08-11T14:38:50;3.63;;;1.30;;
69912;SDS011;57198;52.082;5.108;2022-08-11T14:41:19;6.07;;;1.00;;
69912;SDS011;57198;52.082;5.108;2022-08-11T14:44:25;4.75;;;1.10;;
69912;SDS011;57198;52.082;5.108;2022-08-11T14:47:12;1.75;;;1.08;;
69912;SDS011;57198;52.082;5.108;2022-08-11T14:49:50;2.50;;;1.10;;
69912;SDS011;57198;52.082;5.108;2022-08-11T14:52:36;3.92;;;1.10;;
69912;SDS011;57198;52.082;5.108;2022-08-11T14:55:04;4.03;;;1.27;;
69912;SDS011;57198;52.082;5.108;2022-08-11T14:57:52;2.97;;;1.27;;
69912;SDS011;57198;52.082;5.108;2022-08-11T15:00:22;1.48;;;0.90;;
69912;SDS011;57198;52.082;5.108;2022-08-11T15:02:50;4.10;;;1.20;;
69912;SDS011;57198;52.082;5.108;2022-08-11T15:05:38;3.13;;;1.10;;
69912;SDS011;57198;52.082;5.108;2022-08-11T15:08:07;3.57;;;1.10;;
69912;SDS011;57198;52.082;5.108;2022-08-11T15:10:35;3.28;;;0.98;;
69912;SDS011;57198;52.082;5.108;2022-08-11T15:13:02;2.35;;;0.90;;
69912;SDS011;57198;52.082;5.108;2022-08-11T15:15:30;4.75;;;1.27;;
69912;SDS011;57198;52.082;5.108;2022-08-11T15:18:16;3.42;;;1.02;;
69912;SDS011;57198;52.082;5.108;2022-08-11T15:20:44;2.73;;;0.90;;
69912;SDS011;57198;52.082;5.108;2022-08-11T15:23:31;3.63;;;1.00;;
69912;SDS011;57198;52.082;5.108;2022-08-11T15:26:18;5.10;;;1.20;;
69912;SDS011;57198;52.082;5.108;2022-08-11T15:29:08;2.60;;;1.13;;
69912;SDS011;57198;52.082;5.108;2022-08-11T15:31:54;3.00;;;1.20;;
69912;SDS011;57198;52.082;5.108;2022-08-11T15:34:40;4.13;;;1.13;;
69912;SDS011;57198;52.082;5.108;2022-08-11T15:37:29;3.83;;;1.10;;
69912;SDS011;57198;52.082;5.108;2022-08-11T15:40:12;5.47;;;0.95;;
69912;SDS011;57198;52.082;5.108;2022-08-11T15:43:09;2.38;;;1.00;;
69912;SDS011;57198;52.082;5.108;2022-08-11T15:45:56;2.65;;;1.30;;
69912;SDS011;57198;52.082;5.108;2022-08-11T15:51:44;1.75;;;1.10;;
69912;SDS011;57198;52.082;5.108;2022-08-11T15:53:52;4.25;;;1.20;;
69912;SDS011;57198;52.082;5.108;2022-08-11T15:56:23;7.35;;;1.10;;
69912;SDS011;57198;52.082;5.108;2022-08-11T15:58:52;2.65;;;0.80;;
69912;SDS011;57198;52.082;5.108;2022-08-11T16:02:06;3.93;;;1.00;;
69912;SDS011;57198;52.082;5.108;2022-08-11T16:04:53;1.70;;;1.10;;
69912;SDS011;57198;52.082;5.108;2022-08-11T16:07:28;2.60;;;1.20;;
69912;SDS011;57198;52.082;5.108;2022-08-11T16:10:03;3.28;;;1.10;;
69912;SDS011;57198;52.082;5.108;2022-08-11T16:15:06;2.37;;;1.10;;
69912;SDS011;57198;52.082;5.108;2022-08-11T16:17:59;5.60;;;1.20;;
69912;SDS011;57198;52.082;5.108;2022-08-11T16:20:28;3.45;;;1.20;;
69912;SDS011;57198;52.082;5.108;2022-08-11T16:22:58;1.63;;;1.10;;
69912;SDS011;57198;52.082;5.108;2022-08-11T16:25:28;3.08;;;0.98;;
69912;SDS011;57198;52.082;5.108;2022-08-11T16:28:15;1.77;;;1.20;;
69912;SDS011;57198;52.082;5.108;2022-08-11T16:30:46;4.55;;;0.90;;
69912;SDS011;57198;52.082;5.108;2022-08-11T16:33:14;1.08;;;0.90;;
69912;SDS011;57198;52.082;5.108;2022-08-11T16:36:02;3.85;;;1.02;;
69912;SDS011;57198;52.082;5.108;2022-08-11T16:38:48;2.45;;;1.25;;
69912;SDS011;57198;52.082;5.108;2022-08-11T16:41:17;1.70;;;1.00;;
69912;SDS011;57198;52.082;5.108;2022-08-11T16:44:05;2.90;;;1.20;;
69912;SDS011;57198;52.082;5.108;2022-08-11T16:47:07;3.50;;;1.15;;
69912;SDS011;57198;52.082;5.108;2022-08-11T16:50:08;2.70;;;1.45;;
69912;SDS011;57198;52.082;5.108;2022-08-11T16:52:28;3.13;;;1.20;;
69912;SDS011;57198;52.082;5.108;2022-08-11T16:54:56;1.90;;;0.90;;
69912;SDS011;57198;52.082;5.108;2022-08-11T16:57:25;9.25;;;1.20;;
69912;SDS011;57198;52.082;5.108;2022-08-11T17:00:12;6.72;;;1.20;;
69912;SDS011;57198;52.082;5.108;2022-08-11T17:02:41;5.90;;;1.30;;
69912;SDS011;57198;52.082;5.108;2022-08-11T17:05:30;4.70;;;0.98;;
69912;SDS011;57198;52.082;5.108;2022-08-11T17:08:22;5.70;;;1.20;;
69912;SDS011;57198;52.082;5.108;2022-08-11T17:11:22;1.70;;;1.10;;
69912;SDS011;57198;52.082;5.108;2022-08-11T17:14:12;6.47;;;1.23;;
69912;SDS011;57198;52.082;5.108;2022-08-11T17:16:40;2.95;;;1.48;;
69912;SDS011;57198;52.082;5.108;2022-08-11T17:19:10;6.45;;;2.72;;
69912;SDS011;57198;52.082;5.108;2022-08-11T17:21:42;1.80;;;1.40;;
69912;SDS011;57198;52.082;5.108;2022-08-11T17:24:29;3.45;;;1.10;;
69912;SDS011;57198;52.082;5.108;2022-08-11T17:26:58;3.05;;;1.15;;
69912;SDS011;57198;52.082;5.108;2022-08-11T17:29:36;3.72;;;1.10;;
69912;SDS011;57198;52.082;5.108;2022-08-11T17:32:22;4.97;;;1.20;;
69912;SDS011;57198;52.082;5.108;2022-08-11T17:35:24;2.67;;;1.00;;
69912;SDS011;57198;52.082;5.108;2022-08-11T17:40:26;5.13;;;1.65;;
69912;SDS011;57198;52.082;5.108;2022-08-11T17:42:55;3.00;;;1.15;;
69912;SDS011;57198;52.082;5.108;2022-08-11T17:45:42;6.10;;;1.48;;
69912;SDS011;57198;52.082;5.108;2022-08-11T17:48:29;1.37;;;0.80;;
69912;SDS011;57198;52.082;5.108;2022-08-11T17:51:02;3.50;;;2.42;;
69912;SDS011;57198;52.082;5.108;2022-08-11T17:53:32;4.63;;;1.35;;
69912;SDS011;57198;52.082;5.108;2022-08-11T17:56:39;3.25;;;1.10;;
69912;SDS011;57198;52.082;5.108;2022-08-11T17:59:25;3.30;;;1.00;;
69912;SDS011;57198;52.082;5.108;2022-08-11T18:02:14;1.77;;;1.00;;
69912;SDS011;57198;52.082;5.108;2022-08-11T18:05:02;6.63;;;1.00;;
69912;SDS011;57198;52.082;5.108;2022-08-11T18:07:39;4.20;;;1.10;;
69912;SDS011;57198;52.082;5.108;2022-08-11T18:10:25;2.78;;;1.30;;
69912;SDS011;57198;52.082;5.108;2022-08-11T18:13:12;4.20;;;1.08;;
69912;SDS011;57198;52.082;5.108;2022-08-11T18:15:58;4.10;;;1.77;;
69912;SDS011;57198;52.082;5.108;2022-08-11T18:18:44;4.28;;;1.08;;
69912;SDS011;57198;52.082;5.108;2022-08-11T18:21:30;3.63;;;0.70;;
69912;SDS011;57198;52.082;5.108;2022-08-11T18:24:37;2.40;;;0.82;;
69912;SDS011;57198;52.082;5.108;2022-08-11T18:27:24;2.20;;;0.85;;
69912;SDS011;57198;52.082;5.108;2022-08-11T18:30:12;2.23;;;0.97;;
69912;SDS011;57198;52.082;5.108;2022-08-11T18:32:59;3.83;;;1.10;;
69912;SDS011;57198;52.082;5.108;2022-08-11T18:36:06;2.30;;;0.90;;
69912;SDS011;57198;52.082;5.108;2022-08-11T18:38:56;3.70;;;0.80;;
69912;SDS011;57198;52.082;5.108;2022-08-11T18:41:43;2.50;;;1.08;;
69912;SDS011;57198;52.082;5.108;2022-08-11T18:44:29;1.77;;;0.80;;
69912;SDS011;57198;52.082;5.108;2022-08-11T18:47:18;4.30;;;1.15;;
69912;SDS011;57198;52.082;5.108;2022-08-11T18:50:07;3.45;;;1.38;;
69912;SDS011;57198;52.082;5.108;2022-08-11T18:53:05;7.25;;;1.10;;
69912;SDS011;57198;52.082;5.108;2022-08-11T18:55:51;5.50;;;1.00;;
69912;SDS011;57198;52.082;5.108;2022-08-11T18:58:37;1.53;;;1.30;;
69912;SDS011;57198;52.082;5.108;2022-08-11T19:01:26;5.25;;;1.10;;
69912;SDS011;57198;52.082;5.108;2022-08-11T19:04:12;5.07;;;1.30;;